Time;durP1;ratioP1;P1;durP2;ratioP2;P2;SDS_P1;SDS_P2;PMS_P1;PMS_P2;Temp;Humidity;BMP_temperature;BMP_pressure;BME280_temperature;BME280_humidity;BME280_pressure;Samples;Min_cycle;Max_cycle;Signal;HPM_P1;HPM_P2
2023/06/02 00:01:49;;;;;;;5.03;3.23;;;14.40;11.90;;;;;;5012739;28;20253;-73
2023/06/02 00:04:17;;;;;;;5.93;3.53;;;14.40;12.40;;;;;;5011581;28;20978;-73
2023/06/02 00:06:45;;;;;;;3.97;3.30;;;14.30;12.60;;;;;;5013370;28;20463;-72
2023/06/02 00:09:11;;;;;;;5.87;3.20;;;14.20;12.60;;;;;;5012505;28;20534;-72
2023/06/02 00:11:38;;;;;;;5.27;3.80;;;14.20;13.30;;;;;;5012159;28;21028;-72
2023/06/02 00:14:05;;;;;;;7.33;3.13;;;14.10;13.50;;;;;;5010899;28;20932;-72
2023/06/02 00:16:33;;;;;;;3.80;3.30;;;13.90;13.50;;;;;;5012229;28;20407;-73
2023/06/02 00:18:59;;;;;;;3.50;3.20;;;13.90;14.10;;;;;;5012118;28;20473;-72
2023/06/02 00:21:26;;;;;;;3.33;3.00;;;13.80;14.50;;;;;;5012057;28;20420;-72
2023/06/02 00:23:52;;;;;;;5.87;3.40;;;13.80;14.80;;;;;;5011909;28;20443;-73
2023/06/02 00:26:17;;;;;;;4.90;3.43;;;13.80;14.30;;;;;;5011829;28;20946;-72
2023/06/02 00:28:43;;;;;;;5.30;3.13;;;13.70;14.90;;;;;;5011809;28;20256;-72
2023/06/02 00:31:09;;;;;;;6.50;4.10;;;13.70;15.00;;;;;;5012085;28;20180;-73
2023/06/02 00:33:35;;;;;;;4.57;3.37;;;13.60;15.10;;;;;;5011746;28;20482;-73
2023/06/02 00:36:01;;;;;;;4.10;3.40;;;13.60;25.20;;;;;;5010541;28;20462;-73
2023/06/02 00:38:26;;;;;;;4.30;3.40;;;13.60;27.70;;;;;;5011995;28;20188;-73
2023/06/02 00:40:52;;;;;;;3.80;3.07;;;13.60;29.20;;;;;;5011852;28;20200;-72
2023/06/02 00:43:17;;;;;;;3.67;2.93;;;13.50;29.10;;;;;;5011573;28;20184;-73
2023/06/02 00:45:43;;;;;;;4.23;3.17;;;13.50;29.90;;;;;;5011741;28;20263;-73
2023/06/02 00:48:08;;;;;;;3.30;3.00;;;13.40;30.40;;;;;;5011720;28;20176;-74
2023/06/02 00:50:34;;;;;;;3.50;3.10;;;13.40;16.90;;;;;;5011783;28;20599;-74
2023/06/02 00:53:00;;;;;;;4.57;4.13;;;13.40;16.40;;;;;;5011551;28;20175;-73
2023/06/02 00:55:30;;;;;;;3.73;3.43;;;13.30;16.40;;;;;;5010324;28;20646;-73
2023/06/02 00:57:58;;;;;;;5.83;3.63;;;13.30;17.00;;;;;;5011569;28;20422;-73
2023/06/02 01:00:25;;;;;;;7.37;4.33;;;13.20;17.20;;;;;;5011621;28;20434;-72
2023/06/02 01:02:50;;;;;;;8.43;4.50;;;13.20;17.10;;;;;;5011338;28;20752;-72
2023/06/02 01:05:16;;;;;;;7.70;4.73;;;13.20;17.40;;;;;;5011624;28;20422;-73
2023/06/02 01:07:46;;;;;;;7.50;4.70;;;13.10;17.70;;;;;;5011645;28;20179;-72
2023/06/02 01:10:14;;;;;;;6.80;4.90;;;13.00;17.90;;;;;;5011474;28;20436;-73
2023/06/02 01:12:40;;;;;;;4.10;3.70;;;13.00;17.90;;;;;;5010029;28;20427;-72
2023/06/02 01:15:06;;;;;;;6.30;4.10;;;13.00;18.00;;;;;;5011473;28;20481;-73
2023/06/02 01:17:35;;;;;;;4.17;3.80;;;13.00;18.20;;;;;;5011563;28;20657;-73
2023/06/02 01:20:05;;;;;;;7.73;3.80;;;12.90;18.30;;;;;;5011482;28;20426;-72
2023/06/02 01:22:34;;;;;;;5.50;4.77;;;12.90;18.50;;;;;;5011244;28;20850;-73
2023/06/02 01:24:59;;;;;;;5.50;5.00;;;12.80;18.80;;;;;;5011297;28;20469;-74
2023/06/02 01:27:25;;;;;;;6.37;5.70;;;12.80;18.90;;;;;;5011434;28;20415;-73
2023/06/02 01:29:52;;;;;;;5.07;4.13;;;12.70;19.10;;;;;;5011306;28;20211;-73
2023/06/02 01:32:36;;;;;;;4.30;3.73;;;12.70;19.30;;;;;;5011499;28;20661;-72
2023/06/02 01:35:06;;;;;;;4.80;4.13;;;12.60;19.50;;;;;;5011304;28;20512;-73
2023/06/02 01:37:35;;;;;;;4.77;3.60;;;12.60;19.70;;;;;;5011297;28;20411;-73
2023/06/02 01:40:03;;;;;;;5.50;4.50;;;12.60;20.10;;;;;;5014880;28;20426;-72
2023/06/02 01:42:30;;;;;;;5.83;3.97;;;12.50;20.10;;;;;;5014453;28;20425;-73
2023/06/02 01:44:56;;;;;;;4.43;3.50;;;12.50;20.10;;;;;;5014767;28;20940;-72
2023/06/02 01:47:22;;;;;;;7.33;3.90;;;12.50;20.50;;;;;;5013338;28;20422;-73
2023/06/02 01:49:48;;;;;;;5.17;3.67;;;12.40;20.50;;;;;;5014399;28;20439;-73
2023/06/02 01:52:13;;;;;;;4.67;3.50;;;12.30;21.10;;;;;;5014514;28;20560;-72
2023/06/02 01:54:39;;;;;;;7.93;4.40;;;12.30;21.20;;;;;;5014621;28;20260;-72
2023/06/02 01:57:06;;;;;;;5.13;3.97;;;12.30;21.10;;;;;;5014569;28;20172;-73
2023/06/02 01:59:32;;;;;;;4.93;3.63;;;12.30;21.10;;;;;;5014348;28;20427;-73
2023/06/02 02:01:58;;;;;;;4.87;3.40;;;12.20;21.20;;;;;;5014159;28;20481;-73
2023/06/02 02:04:23;;;;;;;4.90;4.07;;;12.10;21.20;;;;;;5014271;28;20176;-72
2023/06/02 02:06:52;;;;;;;4.83;3.07;;;12.10;21.60;;;;;;5014225;28;20179;-73
2023/06/02 02:09:18;;;;;;;6.53;4.30;;;12.10;22.10;;;;;;5014389;28;20260;-73
2023/06/02 02:11:43;;;;;;;4.97;3.37;;;12.10;21.80;;;;;;5013858;28;20415;-73
2023/06/02 02:14:09;;;;;;;7.07;3.83;;;12.10;21.80;;;;;;5014080;28;20472;-72
2023/06/02 02:16:35;;;;;;;5.90;3.57;;;12.00;22.20;;;;;;5014113;28;20187;-73
2023/06/02 02:19:01;;;;;;;5.00;4.03;;;12.00;22.20;;;;;;5012884;28;20287;-73
2023/06/02 02:21:26;;;;;;;5.80;4.40;;;11.90;22.30;;;;;;5013838;28;20517;-73
2023/06/02 02:23:53;;;;;;;3.93;3.43;;;11.90;28.00;;;;;;5013852;28;20178;-73
2023/06/02 02:26:19;;;;;;;5.63;4.10;;;11.90;36.50;;;;;;5013916;28;20207;-73
2023/06/02 02:28:45;;;;;;;4.90;4.40;;;11.90;36.30;;;;;;5013685;28;20461;-73
2023/06/02 02:31:11;;;;;;;5.57;4.40;;;11.90;37.30;;;;;;5013881;28;20641;-73
2023/06/02 02:33:38;;;;;;;6.00;4.00;;;11.80;36.40;;;;;;5014046;28;20415;-73
2023/06/02 02:36:03;;;;;;;9.90;3.67;;;11.70;37.20;;;;;;5013800;28;20736;-72
2023/06/02 02:38:29;;;;;;;6.37;4.23;;;11.70;36.90;;;;;;5013632;28;20518;-74
2023/06/02 02:40:55;;;;;;;5.57;4.07;;;11.60;36.90;;;;;;5013644;28;20262;-73
2023/06/02 02:43:21;;;;;;;5.07;3.70;;;11.60;38.50;;;;;;5013415;28;20183;-73
2023/06/02 02:45:47;;;;;;;4.50;3.80;;;11.60;38.80;;;;;;5013546;28;20174;-73
2023/06/02 02:48:12;;;;;;;5.33;3.87;;;11.50;39.60;;;;;;5013536;28;20423;-73
2023/06/02 02:50:38;;;;;;;4.33;3.30;;;11.50;40.50;;;;;;5013228;28;20213;-73
2023/06/02 02:53:03;;;;;;;5.80;3.33;;;11.50;33.70;;;;;;5013232;28;20183;-73
2023/06/02 02:55:32;;;;;;;4.63;3.60;;;11.40;32.10;;;;;;5013297;28;20224;-72
2023/06/02 02:57:59;;;;;;;4.53;3.87;;;11.40;31.00;;;;;;5013492;28;20176;-73
2023/06/02 03:00:25;;;;;;;4.80;3.53;;;11.40;30.10;;;;;;5013257;28;20439;-73
2023/06/02 03:02:51;;;;;;;5.40;4.20;;;11.40;30.20;;;;;;5012953;28;20475;-73
2023/06/02 03:05:16;;;;;;;6.63;4.40;;;11.40;29.60;;;;;;5013381;28;20906;-73
2023/06/02 03:07:44;;;;;;;6.37;4.10;;;11.40;29.00;;;;;;5013208;28;20551;-74
2023/06/02 03:10:10;;;;;;;8.23;4.20;;;11.40;28.70;;;;;;5012897;28;20567;-72
2023/06/02 03:12:36;;;;;;;6.00;4.50;;;11.30;27.80;;;;;;5012686;28;20768;-73
2023/06/02 03:15:01;;;;;;;5.20;3.97;;;11.30;28.20;;;;;;5012788;28;20483;-73
2023/06/02 03:17:27;;;;;;;4.20;3.80;;;11.20;27.50;;;;;;5012822;28;20180;-73
2023/06/02 03:19:55;;;;;;;5.13;3.50;;;11.20;27.60;;;;;;5012720;28;20199;-73
2023/06/02 03:22:20;;;;;;;4.90;4.23;;;11.20;27.10;;;;;;5012313;28;20417;-74
2023/06/02 03:24:46;;;;;;;5.30;3.60;;;11.20;26.90;;;;;;5011336;28;20951;-72
2023/06/02 03:27:13;;;;;;;7.37;4.30;;;11.10;26.50;;;;;;5012646;28;20449;-72
2023/06/02 03:29:39;;;;;;;14.63;4.53;;;11.10;26.90;;;;;;5011120;28;20218;-73
2023/06/02 03:32:11;;;;;;;5.90;4.17;;;11.10;26.50;;;;;;5012096;28;20504;-73
2023/06/02 03:34:39;;;;;;;5.00;3.60;;;11.10;26.50;;;;;;5012519;28;20457;-72
2023/06/02 03:37:10;;;;;;;5.40;4.43;;;11.10;26.30;;;;;;5011292;28;20425;-73
2023/06/02 03:39:35;;;;;;;7.83;4.73;;;11.00;26.60;;;;;;5012649;28;20528;-72
2023/06/02 03:42:01;;;;;;;5.03;4.30;;;11.00;25.90;;;;;;5010952;28;20468;-72
2023/06/02 03:44:26;;;;;;;6.90;4.17;;;11.00;26.10;;;;;;5012279;28;20185;-74
2023/06/02 03:46:52;;;;;;;6.43;4.10;;;11.00;26.20;;;;;;5012361;28;20178;-72
2023/06/02 03:49:17;;;;;;;5.53;4.20;;;11.00;26.00;;;;;;5012538;28;20509;-73
2023/06/02 03:51:43;;;;;;;5.10;3.80;;;11.00;25.40;;;;;;5011961;28;20540;-73
2023/06/02 03:54:09;;;;;;;6.53;4.67;;;11.10;25.60;;;;;;5012153;28;20226;-72
2023/06/02 03:56:35;;;;;;;7.63;4.60;;;11.00;26.00;;;;;;5012213;28;20205;-72
2023/06/02 03:59:01;;;;;;;6.43;4.53;;;11.10;25.40;;;;;;5011953;28;20798;-73
2023/06/02 04:01:27;;;;;;;5.13;4.57;;;11.10;25.60;;;;;;5010299;28;20540;-73
2023/06/02 04:03:53;;;;;;;7.97;4.90;;;11.10;25.40;;;;;;5012069;28;20171;-72
2023/06/02 04:06:18;;;;;;;8.10;5.53;;;11.10;25.20;;;;;;5012113;28;20499;-73
2023/06/02 04:08:45;;;;;;;5.33;4.27;;;11.10;25.50;;;;;;5012032;28;20180;-73
2023/06/02 04:11:10;;;;;;;6.00;3.93;;;11.10;25.50;;;;;;5011997;28;20170;-72
2023/06/02 04:13:36;;;;;;;6.80;4.17;;;11.20;25.20;;;;;;5011641;28;20748;-72
2023/06/02 04:16:02;;;;;;;9.03;5.10;;;11.20;25.60;;;;;;5010480;28;20305;-73
2023/06/02 04:18:30;;;;;;;5.37;4.10;;;11.20;25.30;;;;;;5011759;28;20177;-72
2023/06/02 04:20:55;;;;;;;6.30;3.67;;;11.20;24.80;;;;;;5011997;28;20421;-72
2023/06/02 04:23:21;;;;;;;5.37;3.67;;;11.30;24.70;;;;;;5011692;28;20412;-72
2023/06/02 04:25:47;;;;;;;6.00;4.27;;;11.30;24.30;;;;;;5011897;28;20304;-72
2023/06/02 04:28:12;;;;;;;6.10;4.73;;;11.40;25.00;;;;;;5011844;28;20453;-72
2023/06/02 04:30:39;;;;;;;6.97;4.37;;;11.40;23.60;;;;;;5026587;22;20230;-68
2023/06/02 04:33:05;;;;;;;5.43;4.40;;;11.50;23.60;;;;;;5001455;28;20178;-69
2023/06/02 04:35:30;;;;;;;5.60;3.73;;;11.60;23.70;;;;;;5000932;28;20524;-70
2023/06/02 04:37:56;;;;;;;5.70;4.13;;;11.60;23.10;;;;;;5001086;28;20171;-69
2023/06/02 04:40:22;;;;;;;4.07;3.60;;;11.60;23.20;;;;;;5001797;28;20201;-69
2023/06/02 04:42:47;;;;;;;9.37;4.53;;;11.70;23.10;;;;;;5001174;28;20175;-69
2023/06/02 04:45:13;;;;;;;5.90;4.03;;;11.80;22.40;;;;;;5001848;28;20419;-70
2023/06/02 04:47:40;;;;;;;5.40;4.27;;;11.80;22.20;;;;;;5001687;28;20182;-69
2023/06/02 04:50:12;;;;;;;5.90;4.10;;;11.90;21.70;;;;;;5001721;28;20207;-69
2023/06/02 04:52:44;;;;;;;5.80;3.30;;;12.00;21.70;;;;;;5001423;28;20422;-69
2023/06/02 04:55:13;;;;;;;5.70;3.70;;;12.10;21.70;;;;;;5001253;28;20482;-70
2023/06/02 04:57:39;;;;;;;4.90;4.30;;;12.30;21.30;;;;;;5001791;28;20411;-69
2023/06/02 05:00:06;;;;;;;5.13;4.60;;;12.40;20.30;;;;;;5001374;28;20654;-69
2023/06/02 05:02:32;;;;;;;6.73;4.20;;;12.60;20.10;;;;;;5001440;28;20439;-70
2023/06/02 05:04:58;;;;;;;5.53;3.60;;;12.70;19.50;;;;;;5001231;28;20424;-70
2023/06/02 05:07:24;;;;;;;5.67;4.37;;;12.80;19.40;;;;;;5001107;28;20207;-69
2023/06/02 05:09:50;;;;;;;9.83;4.60;;;12.90;18.90;;;;;;5001807;28;20438;-70
2023/06/02 05:12:18;;;;;;;8.10;4.50;;;13.00;18.30;;;;;;5000800;28;20448;-70
2023/06/02 05:14:44;;;;;;;7.37;4.80;;;13.10;17.90;;;;;;5004197;28;20201;-70
2023/06/02 05:17:10;;;;;;;7.13;5.13;;;13.20;18.00;;;;;;5004676;28;20489;-69
2023/06/02 05:19:39;;;;;;;11.83;5.07;;;13.30;17.40;;;;;;5005145;28;20192;-70
2023/06/02 05:22:05;;;;;;;9.77;5.17;;;13.50;16.70;;;;;;5004063;28;20438;-70
2023/06/02 05:24:31;;;;;;;22.53;7.40;;;13.60;16.50;;;;;;5005718;28;20423;-70
2023/06/02 05:26:56;;;;;;;14.60;6.43;;;13.80;16.10;;;;;;5004646;28;20180;-69
2023/06/02 05:29:22;;;;;;;6.83;5.90;;;13.90;15.00;;;;;;5005712;28;20208;-70
2023/06/02 05:31:47;;;;;;;8.77;4.33;;;14.10;14.20;;;;;;5005209;28;20182;-70
2023/06/02 05:34:13;;;;;;;8.40;4.20;;;14.50;13.50;;;;;;5004066;28;20193;-70
2023/06/02 05:36:38;;;;;;;7.67;4.93;;;15.20;11.60;;;;;;5004710;28;20224;-70
2023/06/02 05:39:04;;;;;;;5.73;4.23;;;15.60;8.60;;;;;;5006204;28;20703;-69
2023/06/02 05:41:30;;;;;;;8.30;4.67;;;15.80;8.20;;;;;;5008458;28;20188;-69
2023/06/02 05:43:55;;;;;;;7.00;6.23;;;16.10;7.90;;;;;;5007849;28;20708;-70
2023/06/02 05:46:22;;;;;;;9.80;6.00;;;16.60;6.30;;;;;;5007924;28;20203;-70
2023/06/02 05:48:48;;;;;;;9.33;6.87;;;18.10;3.90;;;;;;5007564;28;20265;-69
2023/06/02 05:51:14;;;;;;;6.37;5.73;;;19.60;1.00;;;;;;5007831;28;20761;-70
2023/06/02 05:53:40;;;;;;;8.63;6.20;;;20.80;1.00;;;;;;5006205;28;20181;-71
2023/06/02 05:56:06;;;;;;;6.43;5.83;;;21.90;1.00;;;;;;5006097;28;20518;-69
2023/06/02 05:58:31;;;;;;;9.50;7.07;;;23.30;1.00;;;;;;5005295;28;20265;-69
2023/06/02 06:00:57;;;;;;;14.37;7.30;;;24.00;1.00;;;;;;5003711;28;20487;-69
2023/06/02 06:03:23;;;;;;;11.20;7.70;;;25.30;1.00;;;;;;4996330;28;20188;-69
2023/06/02 06:05:48;;;;;;;7.37;6.60;;;25.50;1.00;;;;;;5001967;28;20193;-69
2023/06/02 06:08:14;;;;;;;7.80;7.10;;;26.60;1.00;;;;;;5002207;28;20646;-69
2023/06/02 06:10:42;;;;;;;7.30;6.70;;;27.80;1.00;;;;;;5000566;28;20205;-70
2023/06/02 06:13:08;;;;;;;9.30;8.40;;;29.90;1.00;;;;;;5000034;28;20420;-70
2023/06/02 06:15:34;;;;;;;7.67;6.97;;;31.10;1.00;;;;;;5000443;28;20983;-70
2023/06/02 06:17:59;;;;;;;7.77;7.00;;;31.50;1.00;;;;;;5001619;28;20424;-70
2023/06/02 06:20:25;;;;;;;8.70;7.90;;;31.00;1.00;;;;;;5000153;28;20197;-70
2023/06/02 06:22:50;;;;;;;8.07;7.33;;;30.70;1.00;;;;;;5001580;28;20236;-70
2023/06/02 06:25:16;;;;;;;7.67;6.90;;;31.60;1.00;;;;;;5000973;28;20185;-70
2023/06/02 06:27:42;;;;;;;8.13;7.10;;;31.40;1.00;;;;;;5000104;28;20192;-70
2023/06/02 06:30:08;;;;;;;8.93;7.80;;;30.90;1.00;;;;;;5001814;28;20228;-70
2023/06/02 06:32:33;;;;;;;8.10;7.50;;;30.40;1.00;;;;;;5000526;28;20268;-70
2023/06/02 06:35:00;;;;;;;9.07;8.20;;;31.00;1.00;;;;;;5001108;28;20455;-70
2023/06/02 06:37:27;;;;;;;7.10;6.50;;;31.50;1.00;;;;;;5002451;28;20188;-70
2023/06/02 06:39:53;;;;;;;7.97;7.27;;;32.00;1.00;;;;;;5002819;28;20757;-71
2023/06/02 06:42:19;;;;;;;7.30;6.60;;;32.70;1.00;;;;;;5002834;28;20893;-71
2023/06/02 06:44:44;;;;;;;11.03;7.50;;;32.90;1.00;;;;;;5002486;28;20203;-70
2023/06/02 06:47:10;;;;;;;8.43;7.77;;;33.00;1.00;;;;;;5002147;28;20666;-70
2023/06/02 06:49:36;;;;;;;8.13;7.53;;;32.80;1.00;;;;;;5001337;28;20296;-70
2023/06/02 06:52:01;;;;;;;8.43;7.57;;;33.40;1.00;;;;;;5001141;28;20181;-71
2023/06/02 06:54:27;;;;;;;9.47;8.23;;;33.00;1.00;;;;;;5001327;28;20213;-70
2023/06/02 06:56:52;;;;;;;9.90;8.90;;;32.40;1.00;;;;;;5002217;28;20176;-70
2023/06/02 06:59:18;;;;;;;9.27;8.50;;;32.60;1.00;;;;;;5002301;28;20200;-70
2023/06/02 07:01:43;;;;;;;8.23;7.47;;;33.80;1.00;;;;;;5001635;28;20184;-70
2023/06/02 07:04:10;;;;;;;7.60;7.00;;;33.20;1.00;;;;;;5001843;28;20211;-70
2023/06/02 07:06:36;;;;;;;8.50;7.83;;;32.00;1.00;;;;;;5001756;28;20604;-70
2023/06/02 07:09:03;;;;;;;10.53;7.07;;;33.00;1.00;;;;;;5000803;28;20462;-70
2023/06/02 07:11:29;;;;;;;8.53;7.67;;;32.90;1.00;;;;;;5000751;28;20470;-70
2023/06/02 07:13:55;;;;;;;7.00;6.40;;;32.90;1.00;;;;;;5001603;28;20950;-69
2023/06/02 07:16:21;;;;;;;8.80;8.00;;;33.70;1.00;;;;;;5000990;28;20208;-70
2023/06/02 07:18:47;;;;;;;9.57;8.20;;;34.90;1.00;;;;;;5001946;28;20768;-70
2023/06/02 07:21:13;;;;;;;8.60;7.83;;;35.60;1.00;;;;;;5001679;28;20420;-70
2023/06/02 07:23:38;;;;;;;8.40;7.60;;;35.00;1.00;;;;;;5001342;28;20785;-69
2023/06/02 07:26:04;;;;;;;10.03;8.70;;;34.40;1.00;;;;;;5002063;28;20260;-71
2023/06/02 07:28:29;;;;;;;8.50;7.70;;;33.90;1.00;;;;;;5001145;28;20216;-70
2023/06/02 07:30:55;;;;;;;9.30;8.30;;;33.20;1.00;;;;;;5000840;28;20244;-70
2023/06/02 07:33:20;;;;;;;7.93;7.33;;;33.30;1.00;;;;;;5000145;28;20181;-69
2023/06/02 07:35:46;;;;;;;8.00;7.40;;;33.40;1.00;;;;;;5001016;28;20204;-70
2023/06/02 07:38:12;;;;;;;8.50;7.70;;;33.80;1.00;;;;;;5001938;28;20187;-70
2023/06/02 07:40:37;;;;;;;8.10;7.40;;;33.80;1.00;;;;;;5000174;28;20282;-70
2023/06/02 07:43:04;;;;;;;8.47;7.67;;;33.50;1.00;;;;;;5000936;28;20177;-69
2023/06/02 07:45:29;;;;;;;8.20;7.50;;;34.10;1.00;;;;;;5000778;28;20188;-69
2023/06/02 07:47:55;;;;;;;9.47;8.27;;;33.80;1.00;;;;;;5001660;28;20972;-70
2023/06/02 07:50:21;;;;;;;8.07;7.37;;;34.30;1.00;;;;;;5001941;28;20685;-68
2023/06/02 07:52:46;;;;;;;7.07;6.53;;;34.10;1.00;;;;;;5000875;28;20188;-70
2023/06/02 07:55:12;;;;;;;9.57;8.57;;;35.10;1.00;;;;;;5002472;28;20211;-69
2023/06/02 07:57:38;;;;;;;8.00;7.30;;;34.40;1.00;;;;;;5002033;28;20219;-69
2023/06/02 08:00:17;;;;;;;8.00;7.30;;;34.90;1.00;;;;;;5001251;28;20434;-69
2023/06/02 08:02:46;;;;;;;13.77;9.53;;;36.00;1.00;;;;;;5002053;28;20466;-70
2023/06/02 08:05:12;;;;;;;9.60;8.33;;;36.00;1.00;;;;;;5001851;28;20412;-70
2023/06/02 08:07:38;;;;;;;8.93;8.07;;;34.60;1.00;;;;;;5002430;28;20438;-69
2023/06/02 08:10:05;;;;;;;7.97;7.30;;;34.10;1.00;;;;;;5002166;28;20519;-70
2023/06/02 08:12:30;;;;;;;14.90;7.70;;;35.30;1.00;;;;;;5001622;28;20411;-70
2023/06/02 08:14:56;;;;;;;9.93;8.83;;;34.00;1.00;;;;;;5002052;28;20478;-70
2023/06/02 08:17:22;;;;;;;8.97;8.07;;;33.80;1.00;;;;;;5001587;28;20177;-70
2023/06/02 08:19:47;;;;;;;8.43;7.53;;;34.00;1.00;;;;;;5002195;28;20600;-70
2023/06/02 08:22:13;;;;;;;9.37;8.50;;;35.50;1.00;;;;;;5001610;28;20181;-70
2023/06/02 08:24:38;;;;;;;7.20;6.60;;;35.40;1.00;;;;;;5000300;28;20192;-71
2023/06/02 08:27:04;;;;;;;8.40;7.67;;;35.30;1.00;;;;;;5000864;28;20184;-71
2023/06/02 08:29:31;;;;;;;8.90;8.10;;;34.80;1.00;;;;;;4999774;28;20223;-70
2023/06/02 08:31:57;;;;;;;11.33;8.07;;;34.20;1.00;;;;;;4999944;28;20498;-70
2023/06/02 08:34:24;;;;;;;8.77;7.97;;;34.70;1.00;;;;;;5000211;28;20419;-70
2023/06/02 08:37:03;;;;;;;9.23;8.33;;;33.70;1.00;;;;;;5001189;28;20416;-71
2023/06/02 08:39:29;;;;;;;10.53;8.80;;;35.30;1.00;;;;;;4999982;28;20436;-69
2023/06/02 08:42:01;;;;;;;9.43;8.53;;;33.90;1.00;;;;;;4999095;28;20499;-70
2023/06/02 08:44:28;;;;;;;9.63;8.40;;;34.20;1.00;;;;;;4999977;28;20465;-70
2023/06/02 08:46:55;;;;;;;10.13;8.17;;;34.00;1.00;;;;;;4999506;28;20422;-70
2023/06/02 08:49:22;;;;;;;9.03;8.33;;;33.90;1.00;;;;;;5004576;28;20442;-70
2023/06/02 08:51:52;;;;;;;9.23;8.33;;;32.50;1.00;;;;;;5003252;28;20412;-71
2023/06/02 08:54:20;;;;;;;9.93;8.77;;;34.20;1.00;;;;;;5004247;28;20424;-70
2023/06/02 08:56:48;;;;;;;10.07;9.07;;;35.30;1.00;;;;;;5004730;28;20778;-70
2023/06/02 08:59:19;;;;;;;7.83;7.10;;;34.70;1.00;;;;;;5004605;28;20807;-70
2023/06/02 09:01:46;;;;;;;9.97;9.07;;;35.50;1.00;;;;;;5004047;28;20502;-70
2023/06/02 09:04:11;;;;;;;9.27;8.37;;;34.70;1.00;;;;;;5004302;28;20424;-70
2023/06/02 09:06:37;;;;;;;10.07;9.10;;;34.70;1.00;;;;;;5004972;28;20929;-70
2023/06/02 09:09:04;;;;;;;8.47;7.67;;;34.50;1.00;;;;;;5004478;28;20208;-70
2023/06/02 09:11:30;;;;;;;9.53;7.80;;;32.50;1.00;;;;;;5002695;28;20514;-70
2023/06/02 09:13:57;;;;;;;10.53;8.60;;;31.40;1.00;;;;;;5000843;28;20876;-70
2023/06/02 09:16:33;;;;;;;29.23;13.10;;;29.50;1.00;;;;;;5002125;28;20467;-70
2023/06/02 09:19:00;;;;;;;15.77;9.13;;;27.80;1.00;;;;;;5001771;28;20424;-70
2023/06/02 09:21:32;;;;;;;10.27;8.30;;;25.80;1.00;;;;;;5003891;28;20411;-70
2023/06/02 09:23:58;;;;;;;10.03;9.00;;;24.60;1.00;;;;;;5004371;28;20487;-70
2023/06/02 09:26:26;;;;;;;8.80;7.87;;;24.00;1.00;;;;;;5004282;28;20419;-70
2023/06/02 09:29:13;;;;;;;8.23;7.47;;;23.40;1.00;;;;;;5005042;28;20428;-69
2023/06/02 09:31:47;;;;;;;10.20;9.10;;;22.50;1.00;;;;;;5003484;28;20435;-70
2023/06/02 09:34:14;;;;;;;9.13;8.03;;;22.10;1.00;;;;;;5005377;28;20415;-70
2023/06/02 09:36:46;;;;;;;20.43;9.53;;;22.00;1.00;;;;;;5006033;28;20474;-69
2023/06/02 09:39:12;;;;;;;7.67;6.27;;;21.70;1.00;;;;;;5008991;28;20427;-71
2023/06/02 09:41:44;;;;;;;7.93;7.17;;;21.60;1.00;;;;;;5008853;28;20481;-69
2023/06/02 09:44:14;;;;;;;10.47;7.80;;;21.80;1.00;;;;;;5006406;28;20185;-69
2023/06/02 09:46:43;;;;;;;8.50;7.67;;;21.70;1.00;;;;;;5010526;28;20414;-70
2023/06/02 09:49:14;;;;;;;8.20;7.40;;;21.80;1.00;;;;;;5006896;28;20458;-70
2023/06/02 09:51:40;;;;;;;7.00;6.40;;;21.80;1.00;;;;;;5005448;28;20415;-69
2023/06/02 09:54:07;;;;;;;8.23;7.53;;;21.90;1.00;;;;;;5007701;28;20438;-70
2023/06/02 09:56:36;;;;;;;8.40;7.50;;;21.80;1.00;;;;;;5007984;28;20208;-70
2023/06/02 09:59:03;;;;;;;11.40;9.17;;;21.90;1.00;;;;;;5006860;28;20420;-70
2023/06/02 10:01:28;;;;;;;9.27;8.37;;;21.80;1.00;;;;;;5006574;28;20423;-70
2023/06/02 10:03:54;;;;;;;9.90;9.00;;;21.90;1.00;;;;;;5006363;28;20420;-70
2023/06/02 10:06:46;;;;;;;10.27;7.83;;;21.90;1.00;;;;;;5006793;28;20180;-70
2023/06/02 10:09:14;;;;;;;8.90;8.00;;;21.90;1.00;;;;;;5005870;28;20434;-70
2023/06/02 10:12:06;;;;;;;7.70;7.00;;;22.00;1.00;;;;;;5005653;28;20419;-70
2023/06/02 10:14:37;;;;;;;8.73;7.67;;;21.90;1.00;;;;;;5004834;28;20424;-70
2023/06/02 10:17:33;;;;;;;7.47;6.67;;;21.90;1.00;;;;;;5004853;28;20412;-70
2023/06/02 10:20:07;;;;;;;7.33;6.43;;;22.00;1.00;;;;;;5003599;28;20483;-70
2023/06/02 10:22:47;;;;;;;8.70;7.47;;;22.10;1.00;;;;;;5004062;28;20461;-70
2023/06/02 10:25:15;;;;;;;8.70;7.80;;;22.40;1.00;;;;;;5005013;28;20412;-70
2023/06/02 10:27:44;;;;;;;10.13;8.70;;;22.20;1.00;;;;;;5005983;28;20422;-70
2023/06/02 10:30:10;;;;;;;9.07;8.03;;;22.00;1.00;;;;;;5003700;28;20474;-70
2023/06/02 10:32:47;;;;;;;8.67;7.80;;;22.20;1.00;;;;;;5003540;28;20424;-70
2023/06/02 10:35:14;;;;;;;8.00;7.30;;;22.30;1.00;;;;;;5003325;28;20462;-70
2023/06/02 10:37:40;;;;;;;9.17;7.60;;;22.30;1.00;;;;;;5003215;28;20431;-69
2023/06/02 10:40:10;;;;;;;9.83;7.30;;;22.50;1.00;;;;;;5002733;28;20438;-69
2023/06/02 10:42:36;;;;;;;8.57;6.10;;;22.60;1.00;;;;;;5001776;28;20420;-70
2023/06/02 10:45:35;;;;;;;9.40;8.00;;;22.40;1.00;;;;;;5002424;28;20420;-73
2023/06/02 10:48:00;;;;;;;12.43;8.00;;;22.40;1.00;;;;;;5002571;28;20441;-70
2023/06/02 10:50:55;;;;;;;12.23;7.00;;;22.40;1.00;;;;;;5002988;28;20531;-70
2023/06/02 10:53:20;;;;;;;10.97;7.13;;;22.40;1.00;;;;;;5000623;28;20231;-70
2023/06/02 10:55:46;;;;;;;8.73;7.67;;;22.50;1.00;;;;;;5002537;28;20486;-70
2023/06/02 10:58:12;;;;;;;10.10;7.43;;;22.50;1.00;;;;;;5003810;28;20173;-70
2023/06/02 11:00:44;;;;;;;6.97;6.37;;;22.40;1.00;;;;;;5003660;28;20284;-70
2023/06/02 11:03:17;;;;;;;11.70;7.00;;;22.40;1.00;;;;;;5002284;28;20464;-71
2023/06/02 11:05:46;;;;;;;10.53;8.70;;;22.50;1.00;;;;;;5002953;28;20458;-70
2023/06/02 11:08:12;;;;;;;9.03;7.67;;;22.60;1.00;;;;;;5002714;28;20522;-70
2023/06/02 11:10:45;;;;;;;10.53;7.60;;;22.70;1.00;;;;;;5003680;28;20466;-70
2023/06/02 11:13:13;;;;;;;9.17;7.57;;;22.80;1.00;;;;;;5000826;28;20435;-71
2023/06/02 11:15:59;;;;;;;7.70;7.00;;;23.00;1.00;;;;;;5002381;28;20459;-70
2023/06/02 11:18:33;;;;;;;7.07;6.47;;;22.90;1.00;;;;;;5000997;28;20435;-70
2023/06/02 11:21:15;;;;;;;9.83;7.00;;;23.00;1.00;;;;;;5002801;28;20435;-70
2023/06/02 11:23:44;;;;;;;10.10;8.43;;;22.90;1.00;;;;;;5003414;28;20444;-70
2023/06/02 11:26:21;;;;;;;7.70;7.10;;;22.90;1.00;;;;;;5002889;28;20424;-70
2023/06/02 11:28:47;;;;;;;9.17;8.00;;;22.80;1.00;;;;;;5002316;28;20474;-71
2023/06/02 11:31:14;;;;;;;9.13;7.70;;;22.90;1.00;;;;;;5002630;28;20436;-70
2023/06/02 11:33:42;;;;;;;8.80;7.90;;;23.00;1.00;;;;;;5002158;28;20420;-71
2023/06/02 11:36:13;;;;;;;8.47;7.73;;;23.00;1.00;;;;;;5001872;28;20913;-70
2023/06/02 11:38:39;;;;;;;14.07;6.30;;;23.10;1.00;;;;;;5001086;28;20435;-70
2023/06/02 11:41:13;;;;;;;7.73;7.03;;;23.20;1.00;;;;;;5002045;28;20432;-70
2023/06/02 11:43:40;;;;;;;7.73;6.57;;;23.40;1.00;;;;;;5000746;28;20412;-70
2023/06/02 11:46:13;;;;;;;8.23;7.50;;;23.30;1.00;;;;;;5000455;28;20428;-71
2023/06/02 11:48:40;;;;;;;8.50;7.47;;;23.30;1.00;;;;;;5003024;28;20462;-70
2023/06/02 11:51:06;;;;;;;9.37;7.37;;;23.20;1.00;;;;;;5001729;28;20462;-70
2023/06/02 11:53:33;;;;;;;8.10;7.43;;;23.30;1.00;;;;;;5001901;28;20419;-70
2023/06/02 11:55:59;;;;;;;7.53;6.63;;;23.30;1.00;;;;;;5003285;28;20506;-70
2023/06/02 11:58:27;;;;;;;7.53;6.40;;;23.30;1.00;;;;;;5001107;28;20768;-71
2023/06/02 12:01:07;;;;;;;7.90;6.13;;;23.40;1.00;;;;;;5001342;28;20809;-70
2023/06/02 12:03:33;;;;;;;9.20;7.63;;;23.60;1.00;;;;;;5000881;28;20450;-70
2023/06/02 12:06:08;;;;;;;7.97;6.73;;;23.70;1.00;;;;;;5001806;28;20415;-70
2023/06/02 12:08:35;;;;;;;8.47;7.37;;;23.50;1.00;;;;;;5002061;28;20176;-70
2023/06/02 12:11:00;;;;;;;7.30;6.47;;;23.50;1.00;;;;;;5001072;28;20489;-70
2023/06/02 12:13:31;;;;;;;8.37;7.53;;;23.50;1.00;;;;;;5000489;28;20487;-69
2023/06/02 12:16:24;;;;;;;8.10;7.30;;;23.70;1.00;;;;;;5000418;28;20251;-71
2023/06/02 12:18:50;;;;;;;10.83;7.30;;;23.80;1.00;;;;;;5001808;28;20448;-70
2023/06/02 12:21:27;;;;;;;7.70;7.03;;;23.70;1.00;;;;;;5001052;28;20518;-70
2023/06/02 12:23:54;;;;;;;9.60;7.00;;;23.60;1.00;;;;;;5000459;28;20423;-70
2023/06/02 12:26:21;;;;;;;7.33;6.73;;;23.50;1.00;;;;;;5001211;28;20416;-70
2023/06/02 12:28:48;;;;;;;8.20;6.20;;;23.80;1.00;;;;;;5000452;28;20412;-69
2023/06/02 12:31:18;;;;;;;8.93;7.40;;;23.80;1.00;;;;;;4998737;28;20435;-69
2023/06/02 12:33:45;;;;;;;8.67;7.73;;;24.00;1.00;;;;;;4998748;28;20890;-69
2023/06/02 12:36:12;;;;;;;7.50;6.80;;;24.10;1.00;;;;;;5000102;28;20543;-68
2023/06/02 12:38:39;;;;;;;7.13;6.17;;;24.00;1.00;;;;;;4999503;28;20412;-69
2023/06/02 12:41:10;;;;;;;6.50;5.90;;;24.10;1.00;;;;;;4999328;28;20427;-69
2023/06/02 12:43:37;;;;;;;7.00;6.30;;;24.30;1.00;;;;;;4999633;28;20471;-69
2023/06/02 12:46:03;;;;;;;6.70;6.20;;;24.40;1.00;;;;;;4999461;28;20454;-70
2023/06/02 12:48:30;;;;;;;6.70;6.13;;;24.50;1.00;;;;;;4998115;28;20428;-68
2023/06/02 12:50:56;;;;;;;7.67;6.90;;;24.50;1.00;;;;;;4999795;28;20200;-69
2023/06/02 12:53:22;;;;;;;7.33;6.63;;;24.50;1.00;;;;;;4999450;28;20905;-69